sensor_id;sensor_type;location;lat;lon;timestamp;temperature;humidity
73121;DHT22;61307;49.628;-1.624;2023-07-22T00:02:06;22.40;51.40
73121;DHT22;61307;49.628;-1.624;2023-07-22T00:04:33;22.40;51.40
73121;DHT22;61307;49.628;-1.624;2023-07-22T00:07:00;22.40;51.50
73121;DHT22;61307;49.628;-1.624;2023-07-22T00:09:27;22.40;51.40
73121;DHT22;61307;49.628;-1.624;2023-07-22T00:11:54;22.40;51.40
73121;DHT22;61307;49.628;-1.624;2023-07-22T00:14:22;22.40;51.40
73121;DHT22;61307;49.628;-1.624;2023-07-22T00:16:50;22.40;51.40
73121;DHT22;61307;49.628;-1.624;2023-07-22T00:19:18;22.40;51.40
73121;DHT22;61307;49.628;-1.624;2023-07-22T00:21:45;22.40;51.30
73121;DHT22;61307;49.628;-1.624;2023-07-22T00:24:13;22.40;51.30
73121;DHT22;61307;49.628;-1.624;2023-07-22T00:26:41;22.40;51.30
73121;DHT22;61307;49.628;-1.624;2023-07-22T00:29:08;22.40;51.40
73121;DHT22;61307;49.628;-1.624;2023-07-22T00:31:35;22.40;51.30
73121;DHT22;61307;49.628;-1.624;2023-07-22T00:34:04;22.40;51.30
73121;DHT22;61307;49.628;-1.624;2023-07-22T00:36:31;22.40;51.30
73121;DHT22;61307;49.628;-1.624;2023-07-22T00:38:58;22.40;51.30
73121;DHT22;61307;49.628;-1.624;2023-07-22T00:41:26;22.40;51.30
73121;DHT22;61307;49.628;-1.624;2023-07-22T00:43:53;22.40;51.30
73121;DHT22;61307;49.628;-1.624;2023-07-22T00:46:21;22.40;51.30
73121;DHT22;61307;49.628;-1.624;2023-07-22T00:48:48;22.40;51.30
73121;DHT22;61307;49.628;-1.624;2023-07-22T00:51:18;22.40;51.30
73121;DHT22;61307;49.628;-1.624;2023-07-22T00:53:48;22.40;51.30
73121;DHT22;61307;49.628;-1.624;2023-07-22T00:56:15;22.40;51.30
73121;DHT22;61307;49.628;-1.624;2023-07-22T00:58:42;22.40;51.20
73121;DHT22;61307;49.628;-1.624;2023-07-22T01:01:09;22.40;51.20
73121;DHT22;61307;49.628;-1.624;2023-07-22T01:03:36;22.30;51.20
73121;DHT22;61307;49.628;-1.624;2023-07-22T01:06:04;22.30;51.10
73121;DHT22;61307;49.628;-1.624;2023-07-22T01:08:32;22.40;51.10
73121;DHT22;61307;49.628;-1.624;2023-07-22T01:11:00;22.30;51.00
73121;DHT22;61307;49.628;-1.624;2023-07-22T01:13:27;22.40;51.10
73121;DHT22;61307;49.628;-1.624;2023-07-22T01:15:54;22.30;51.00
73121;DHT22;61307;49.628;-1.624;2023-07-22T01:18:21;22.30;51.00
73121;DHT22;61307;49.628;-1.624;2023-07-22T01:20:49;22.30;51.10
73121;DHT22;61307;49.628;-1.624;2023-07-22T01:23:18;22.30;51.00
73121;DHT22;61307;49.628;-1.624;2023-07-22T01:25:45;22.30;50.90
73121;DHT22;61307;49.628;-1.624;2023-07-22T01:28:12;22.30;50.90
73121;DHT22;61307;49.628;-1.624;2023-07-22T01:30:39;22.30;51.00
73121;DHT22;61307;49.628;-1.624;2023-07-22T01:33:07;22.30;50.90
73121;DHT22;61307;49.628;-1.624;2023-07-22T01:35:37;22.30;50.90
73121;DHT22;61307;49.628;-1.624;2023-07-22T01:38:05;22.30;50.90
73121;DHT22;61307;49.628;-1.624;2023-07-22T01:40:35;22.30;50.90
73121;DHT22;61307;49.628;-1.624;2023-07-22T01:43:02;22.30;50.90
73121;DHT22;61307;49.628;-1.624;2023-07-22T01:45:29;22.30;50.90
73121;DHT22;61307;49.628;-1.624;2023-07-22T01:47:56;22.30;50.90
73121;DHT22;61307;49.628;-1.624;2023-07-22T01:50:23;22.30;50.90
73121;DHT22;61307;49.628;-1.624;2023-07-22T01:52:51;22.30;50.90
73121;DHT22;61307;49.628;-1.624;2023-07-22T01:55:18;22.30;51.60
73121;DHT22;61307;49.628;-1.624;2023-07-22T01:57:47;22.30;50.90
73121;DHT22;61307;49.628;-1.624;2023-07-22T02:00:15;22.30;50.90
73121;DHT22;61307;49.628;-1.624;2023-07-22T02:02:42;22.30;50.90
73121;DHT22;61307;49.628;-1.624;2023-07-22T02:05:10;22.30;50.80
73121;DHT22;61307;49.628;-1.624;2023-07-22T02:07:37;22.30;50.80
73121;DHT22;61307;49.628;-1.624;2023-07-22T02:10:05;22.30;50.80
73121;DHT22;61307;49.628;-1.624;2023-07-22T02:12:32;22.20;50.70
73121;DHT22;61307;49.628;-1.624;2023-07-22T02:15:00;22.30;50.90
73121;DHT22;61307;49.628;-1.624;2023-07-22T02:17:28;22.30;50.80
73121;DHT22;61307;49.628;-1.624;2023-07-22T02:19:56;22.30;50.80
73121;DHT22;61307;49.628;-1.624;2023-07-22T02:25:31;22.20;50.70
73121;DHT22;61307;49.628;-1.624;2023-07-22T02:27:58;22.20;50.70
73121;DHT22;61307;49.628;-1.624;2023-07-22T02:30:27;22.20;50.70
73121;DHT22;61307;49.628;-1.624;2023-07-22T02:32:54;22.20;50.70
73121;DHT22;61307;49.628;-1.624;2023-07-22T02:35:21;22.20;50.70
73121;DHT22;61307;49.628;-1.624;2023-07-22T02:37:48;22.30;50.80
73121;DHT22;61307;49.628;-1.624;2023-07-22T02:40:16;22.30;50.80
73121;DHT22;61307;49.628;-1.624;2023-07-22T02:42:43;22.20;50.80
73121;DHT22;61307;49.628;-1.624;2023-07-22T02:45:10;22.20;50.80
73121;DHT22;61307;49.628;-1.624;2023-07-22T02:47:39;22.20;50.80
73121;DHT22;61307;49.628;-1.624;2023-07-22T02:50:07;22.20;50.80
73121;DHT22;61307;49.628;-1.624;2023-07-22T02:52:35;22.20;50.80
73121;DHT22;61307;49.628;-1.624;2023-07-22T02:55:08;22.30;50.90
73121;DHT22;61307;49.628;-1.624;2023-07-22T02:57:36;22.20;50.70
73121;DHT22;61307;49.628;-1.624;2023-07-22T03:00:05;22.20;50.80
73121;DHT22;61307;49.628;-1.624;2023-07-22T03:02:34;22.20;50.70
73121;DHT22;61307;49.628;-1.624;2023-07-22T03:05:04;22.20;50.70
73121;DHT22;61307;49.628;-1.624;2023-07-22T03:07:33;22.20;50.80
73121;DHT22;61307;49.628;-1.624;2023-07-22T03:10:01;22.20;50.70
73121;DHT22;61307;49.628;-1.624;2023-07-22T03:12:28;22.20;51.40
73121;DHT22;61307;49.628;-1.624;2023-07-22T03:14:55;22.20;50.70
73121;DHT22;61307;49.628;-1.624;2023-07-22T03:17:22;22.20;50.70
73121;DHT22;61307;49.628;-1.624;2023-07-22T03:19:49;22.20;50.70
73121;DHT22;61307;49.628;-1.624;2023-07-22T03:22:19;22.20;50.70
73121;DHT22;61307;49.628;-1.624;2023-07-22T03:24:46;22.20;50.80
73121;DHT22;61307;49.628;-1.624;2023-07-22T03:27:14;22.20;50.80
73121;DHT22;61307;49.628;-1.624;2023-07-22T03:29:43;22.20;50.80
73121;DHT22;61307;49.628;-1.624;2023-07-22T03:32:10;22.20;50.70
73121;DHT22;61307;49.628;-1.624;2023-07-22T03:34:37;22.20;50.70
73121;DHT22;61307;49.628;-1.624;2023-07-22T03:37:05;22.20;50.70
73121;DHT22;61307;49.628;-1.624;2023-07-22T03:39:33;22.20;50.70
73121;DHT22;61307;49.628;-1.624;2023-07-22T03:42:00;22.20;50.70
73121;DHT22;61307;49.628;-1.624;2023-07-22T03:44:29;22.20;50.70
73121;DHT22;61307;49.628;-1.624;2023-07-22T03:46:56;22.20;50.80
73121;DHT22;61307;49.628;-1.624;2023-07-22T03:49:24;22.20;50.70
73121;DHT22;61307;49.628;-1.624;2023-07-22T03:51:51;22.20;50.80
73121;DHT22;61307;49.628;-1.624;2023-07-22T03:54:18;22.20;50.70
73121;DHT22;61307;49.628;-1.624;2023-07-22T03:56:46;22.20;50.70
73121;DHT22;61307;49.628;-1.624;2023-07-22T03:59:14;22.20;50.70
73121;DHT22;61307;49.628;-1.624;2023-07-22T04:01:41;22.20;50.70
73121;DHT22;61307;49.628;-1.624;2023-07-22T04:04:09;22.20;50.80
73121;DHT22;61307;49.628;-1.624;2023-07-22T04:06:36;22.20;50.70
73121;DHT22;61307;49.628;-1.624;2023-07-22T04:09:03;22.20;50.80
73121;DHT22;61307;49.628;-1.624;2023-07-22T04:11:30;22.20;50.80
73121;DHT22;61307;49.628;-1.624;2023-07-22T04:13:59;22.20;50.80
73121;DHT22;61307;49.628;-1.624;2023-07-22T04:16:26;22.20;50.80
73121;DHT22;61307;49.628;-1.624;2023-07-22T04:18:53;22.20;50.80
73121;DHT22;61307;49.628;-1.624;2023-07-22T04:21:20;22.10;50.70
73121;DHT22;61307;49.628;-1.624;2023-07-22T04:23:48;22.10;50.70
73121;DHT22;61307;49.628;-1.624;2023-07-22T04:26:15;22.10;50.70
73121;DHT22;61307;49.628;-1.624;2023-07-22T04:28:42;22.20;50.90
73121;DHT22;61307;49.628;-1.624;2023-07-22T04:31:11;22.10;50.70
73121;DHT22;61307;49.628;-1.624;2023-07-22T04:33:38;22.10;50.70
73121;DHT22;61307;49.628;-1.624;2023-07-22T04:36:07;22.10;50.80
73121;DHT22;61307;49.628;-1.624;2023-07-22T04:38:34;22.10;50.80
73121;DHT22;61307;49.628;-1.624;2023-07-22T04:41:02;22.10;50.70
73121;DHT22;61307;49.628;-1.624;2023-07-22T04:43:30;22.20;50.80
73121;DHT22;61307;49.628;-1.624;2023-07-22T04:45:58;22.10;50.70
73121;DHT22;61307;49.628;-1.624;2023-07-22T04:48:26;22.10;50.80
73121;DHT22;61307;49.628;-1.624;2023-07-22T04:50:53;22.10;50.80
73121;DHT22;61307;49.628;-1.624;2023-07-22T04:53:21;22.10;50.80
73121;DHT22;61307;49.628;-1.624;2023-07-22T04:55:48;22.10;50.80
73121;DHT22;61307;49.628;-1.624;2023-07-22T04:58:15;22.10;50.80
73121;DHT22;61307;49.628;-1.624;2023-07-22T05:00:43;22.10;50.80
73121;DHT22;61307;49.628;-1.624;2023-07-22T05:03:10;22.10;50.80
73121;DHT22;61307;49.628;-1.624;2023-07-22T05:05:39;22.10;50.90
73121;DHT22;61307;49.628;-1.624;2023-07-22T05:08:05;22.10;50.80
73121;DHT22;61307;49.628;-1.624;2023-07-22T05:10:33;22.10;50.90
73121;DHT22;61307;49.628;-1.624;2023-07-22T05:13:00;22.10;50.80
73121;DHT22;61307;49.628;-1.624;2023-07-22T05:15:27;22.10;50.90
73121;DHT22;61307;49.628;-1.624;2023-07-22T05:17:54;22.10;50.90
73121;DHT22;61307;49.628;-1.624;2023-07-22T05:20:21;22.10;50.90
73121;DHT22;61307;49.628;-1.624;2023-07-22T05:22:50;22.00;50.80
73121;DHT22;61307;49.628;-1.624;2023-07-22T05:25:17;22.10;50.90
73121;DHT22;61307;49.628;-1.624;2023-07-22T05:27:45;22.10;50.90
73121;DHT22;61307;49.628;-1.624;2023-07-22T05:30:12;22.10;50.90
73121;DHT22;61307;49.628;-1.624;2023-07-22T05:32:39;22.10;51.00
73121;DHT22;61307;49.628;-1.624;2023-07-22T05:35:06;22.00;50.90
73121;DHT22;61307;49.628;-1.624;2023-07-22T05:37:35;22.00;50.90
73121;DHT22;61307;49.628;-1.624;2023-07-22T05:40:04;22.10;51.00
73121;DHT22;61307;49.628;-1.624;2023-07-22T05:42:31;22.10;51.10
73121;DHT22;61307;49.628;-1.624;2023-07-22T05:44:58;22.10;51.00
73121;DHT22;61307;49.628;-1.624;2023-07-22T05:47:26;22.10;51.10
73121;DHT22;61307;49.628;-1.624;2023-07-22T05:49:53;22.10;51.00
73121;DHT22;61307;49.628;-1.624;2023-07-22T05:52:21;22.10;51.10
73121;DHT22;61307;49.628;-1.624;2023-07-22T05:54:48;22.00;51.00
73121;DHT22;61307;49.628;-1.624;2023-07-22T05:57:17;22.10;51.10
73121;DHT22;61307;49.628;-1.624;2023-07-22T05:59:44;22.00;51.00
73121;DHT22;61307;49.628;-1.624;2023-07-22T06:02:17;22.00;51.10
73121;DHT22;61307;49.628;-1.624;2023-07-22T06:04:44;22.00;51.00
73121;DHT22;61307;49.628;-1.624;2023-07-22T06:07:11;22.10;51.10
73121;DHT22;61307;49.628;-1.624;2023-07-22T06:09:38;22.10;51.10
73121;DHT22;61307;49.628;-1.624;2023-07-22T06:12:06;22.00;51.10
73121;DHT22;61307;49.628;-1.624;2023-07-22T06:14:35;22.00;51.10
73121;DHT22;61307;49.628;-1.624;2023-07-22T06:17:02;22.00;51.10
73121;DHT22;61307;49.628;-1.624;2023-07-22T06:19:29;22.00;51.20
73121;DHT22;61307;49.628;-1.624;2023-07-22T06:24:39;22.00;51.20
73121;DHT22;61307;49.628;-1.624;2023-07-22T06:27:06;22.10;51.20
73121;DHT22;61307;49.628;-1.624;2023-07-22T06:29:34;22.00;51.20
73121;DHT22;61307;49.628;-1.624;2023-07-22T06:32:01;22.10;51.30
73121;DHT22;61307;49.628;-1.624;2023-07-22T06:34:29;22.10;51.30
73121;DHT22;61307;49.628;-1.624;2023-07-22T06:36:56;22.00;51.30
73121;DHT22;61307;49.628;-1.624;2023-07-22T06:39:23;22.00;51.20
73121;DHT22;61307;49.628;-1.624;2023-07-22T06:41:50;22.00;51.30
73121;DHT22;61307;49.628;-1.624;2023-07-22T06:44:17;22.00;51.30
73121;DHT22;61307;49.628;-1.624;2023-07-22T06:46:46;22.10;51.40
73121;DHT22;61307;49.628;-1.624;2023-07-22T06:49:13;22.00;51.40
73121;DHT22;61307;49.628;-1.624;2023-07-22T06:51:40;22.00;51.40
73121;DHT22;61307;49.628;-1.624;2023-07-22T06:54:07;22.00;51.40
73121;DHT22;61307;49.628;-1.624;2023-07-22T06:56:34;22.10;51.50
73121;DHT22;61307;49.628;-1.624;2023-07-22T06:59:01;22.00;51.40
73121;DHT22;61307;49.628;-1.624;2023-07-22T07:01:28;22.10;51.60
73121;DHT22;61307;49.628;-1.624;2023-07-22T07:03:57;22.10;51.60
73121;DHT22;61307;49.628;-1.624;2023-07-22T07:06:24;22.10;51.60
73121;DHT22;61307;49.628;-1.624;2023-07-22T07:08:51;22.10;51.70
73121;DHT22;61307;49.628;-1.624;2023-07-22T07:11:18;22.10;51.70
73121;DHT22;61307;49.628;-1.624;2023-07-22T07:13:45;22.00;52.20
73121;DHT22;61307;49.628;-1.624;2023-07-22T07:16:22;22.10;51.70
73121;DHT22;61307;49.628;-1.624;2023-07-22T07:18:50;22.00;51.60
73121;DHT22;61307;49.628;-1.624;2023-07-22T07:21:19;22.10;51.70
73121;DHT22;61307;49.628;-1.624;2023-07-22T07:23:46;22.00;51.60
73121;DHT22;61307;49.628;-1.624;2023-07-22T07:26:14;22.10;51.70
73121;DHT22;61307;49.628;-1.624;2023-07-22T07:28:41;22.10;51.70
73121;DHT22;61307;49.628;-1.624;2023-07-22T07:31:08;22.00;51.70
73121;DHT22;61307;49.628;-1.624;2023-07-22T07:33:36;22.00;51.70
73121;DHT22;61307;49.628;-1.624;2023-07-22T07:36:03;22.10;51.80
73121;DHT22;61307;49.628;-1.624;2023-07-22T07:38:32;22.10;52.50
73121;DHT22;61307;49.628;-1.624;2023-07-22T07:41:01;22.10;51.90
73121;DHT22;61307;49.628;-1.624;2023-07-22T07:43:28;22.00;51.80
73121;DHT22;61307;49.628;-1.624;2023-07-22T07:46:14;22.00;51.80
73121;DHT22;61307;49.628;-1.624;2023-07-22T07:48:43;22.10;52.00
73121;DHT22;61307;49.628;-1.624;2023-07-22T07:51:12;22.10;52.00
73121;DHT22;61307;49.628;-1.624;2023-07-22T07:53:41;22.10;51.90
73121;DHT22;61307;49.628;-1.624;2023-07-22T07:56:10;22.10;52.00
73121;DHT22;61307;49.628;-1.624;2023-07-22T07:58:38;22.00;51.90
73121;DHT22;61307;49.628;-1.624;2023-07-22T08:01:05;22.10;52.00
73121;DHT22;61307;49.628;-1.624;2023-07-22T08:03:34;22.00;51.90
73121;DHT22;61307;49.628;-1.624;2023-07-22T08:06:02;22.10;52.00
73121;DHT22;61307;49.628;-1.624;2023-07-22T08:08:29;22.10;52.00
73121;DHT22;61307;49.628;-1.624;2023-07-22T08:11:02;22.10;52.00
73121;DHT22;61307;49.628;-1.624;2023-07-22T08:13:30;22.10;52.00
73121;DHT22;61307;49.628;-1.624;2023-07-22T08:15:59;22.10;52.00
73121;DHT22;61307;49.628;-1.624;2023-07-22T08:18:26;22.10;52.00
73121;DHT22;61307;49.628;-1.624;2023-07-22T08:20:55;22.10;52.00
73121;DHT22;61307;49.628;-1.624;2023-07-22T08:23:22;22.10;52.20
73121;DHT22;61307;49.628;-1.624;2023-07-22T08:25:50;22.10;52.00
73121;DHT22;61307;49.628;-1.624;2023-07-22T08:28:18;22.10;52.10
73121;DHT22;61307;49.628;-1.624;2023-07-22T08:30:47;22.10;52.00
73121;DHT22;61307;49.628;-1.624;2023-07-22T08:33:16;22.10;52.10
73121;DHT22;61307;49.628;-1.624;2023-07-22T08:35:43;22.10;52.10
73121;DHT22;61307;49.628;-1.624;2023-07-22T08:38:11;22.10;52.10
73121;DHT22;61307;49.628;-1.624;2023-07-22T08:40:56;22.10;52.10
73121;DHT22;61307;49.628;-1.624;2023-07-22T08:43:25;22.10;52.20
73121;DHT22;61307;49.628;-1.624;2023-07-22T08:45:54;22.10;52.10
73121;DHT22;61307;49.628;-1.624;2023-07-22T08:48:26;22.10;52.10
73121;DHT22;61307;49.628;-1.624;2023-07-22T08:50:55;22.10;52.10
73121;DHT22;61307;49.628;-1.624;2023-07-22T08:53:23;22.10;52.10
73121;DHT22;61307;49.628;-1.624;2023-07-22T08:55:51;22.10;52.10
73121;DHT22;61307;49.628;-1.624;2023-07-22T08:58:18;22.10;52.20
73121;DHT22;61307;49.628;-1.624;2023-07-22T09:01:05;22.10;52.10
73121;DHT22;61307;49.628;-1.624;2023-07-22T09:03:33;22.00;52.10
73121;DHT22;61307;49.628;-1.624;2023-07-22T09:06:00;22.10;52.20
73121;DHT22;61307;49.628;-1.624;2023-07-22T09:08:28;22.10;52.20
73121;DHT22;61307;49.628;-1.624;2023-07-22T09:10:55;22.10;52.20
73121;DHT22;61307;49.628;-1.624;2023-07-22T09:13:23;22.10;52.20
73121;DHT22;61307;49.628;-1.624;2023-07-22T09:15:51;22.10;52.20
73121;DHT22;61307;49.628;-1.624;2023-07-22T09:18:21;22.10;52.20
73121;DHT22;61307;49.628;-1.624;2023-07-22T09:20:57;22.10;52.20
73121;DHT22;61307;49.628;-1.624;2023-07-22T09:23:32;22.10;52.10
73121;DHT22;61307;49.628;-1.624;2023-07-22T09:26:08;22.10;52.20
73121;DHT22;61307;49.628;-1.624;2023-07-22T09:28:48;22.10;52.20
73121;DHT22;61307;49.628;-1.624;2023-07-22T09:31:15;22.10;52.20
73121;DHT22;61307;49.628;-1.624;2023-07-22T09:33:44;22.10;52.20
73121;DHT22;61307;49.628;-1.624;2023-07-22T09:36:12;22.10;52.20
73121;DHT22;61307;49.628;-1.624;2023-07-22T09:38:39;22.10;52.20
73121;DHT22;61307;49.628;-1.624;2023-07-22T09:41:06;22.10;52.10
73121;DHT22;61307;49.628;-1.624;2023-07-22T09:43:36;22.10;52.10
73121;DHT22;61307;49.628;-1.624;2023-07-22T09:46:09;22.10;52.10
73121;DHT22;61307;49.628;-1.624;2023-07-22T09:48:40;22.10;52.10
73121;DHT22;61307;49.628;-1.624;2023-07-22T09:51:13;22.10;52.10
73121;DHT22;61307;49.628;-1.624;2023-07-22T09:53:45;22.10;52.20
73121;DHT22;61307;49.628;-1.624;2023-07-22T09:56:12;22.10;52.20
73121;DHT22;61307;49.628;-1.624;2023-07-22T09:58:41;22.10;52.10
73121;DHT22;61307;49.628;-1.624;2023-07-22T10:01:13;22.10;52.20
73121;DHT22;61307;49.628;-1.624;2023-07-22T10:03:43;22.10;52.20
73121;DHT22;61307;49.628;-1.624;2023-07-22T10:06:14;22.10;52.10
73121;DHT22;61307;49.628;-1.624;2023-07-22T10:08:44;22.10;52.80
73121;DHT22;61307;49.628;-1.624;2023-07-22T10:11:14;22.10;52.20
73121;DHT22;61307;49.628;-1.624;2023-07-22T10:13:42;22.10;52.10
73121;DHT22;61307;49.628;-1.624;2023-07-22T10:16:09;22.10;52.10
73121;DHT22;61307;49.628;-1.624;2023-07-22T10:18:37;22.10;52.20
73121;DHT22;61307;49.628;-1.624;2023-07-22T10:21:07;22.10;52.20
73121;DHT22;61307;49.628;-1.624;2023-07-22T10:27:00;22.10;52.10
73121;DHT22;61307;49.628;-1.624;2023-07-22T10:29:28;22.10;52.10
73121;DHT22;61307;49.628;-1.624;2023-07-22T10:31:56;22.10;52.20
73121;DHT22;61307;49.628;-1.624;2023-07-22T10:34:24;22.10;52.10
73121;DHT22;61307;49.628;-1.624;2023-07-22T10:36:51;22.10;52.10
73121;DHT22;61307;49.628;-1.624;2023-07-22T10:39:25;22.10;52.20
73121;DHT22;61307;49.628;-1.624;2023-07-22T10:42:01;22.10;52.20
73121;DHT22;61307;49.628;-1.624;2023-07-22T10:44:31;22.10;52.20
73121;DHT22;61307;49.628;-1.624;2023-07-22T10:46:59;22.10;52.20
73121;DHT22;61307;49.628;-1.624;2023-07-22T10:49:42;22.10;52.20
73121;DHT22;61307;49.628;-1.624;2023-07-22T10:52:11;22.10;52.20
73121;DHT22;61307;49.628;-1.624;2023-07-22T10:54:39;22.20;52.30
73121;DHT22;61307;49.628;-1.624;2023-07-22T10:57:24;22.20;52.30
73121;DHT22;61307;49.628;-1.624;2023-07-22T10:59:52;22.20;52.30
73121;DHT22;61307;49.628;-1.624;2023-07-22T11:02:24;22.10;52.20
73121;DHT22;61307;49.628;-1.624;2023-07-22T11:04:52;22.20;52.30
73121;DHT22;61307;49.628;-1.624;2023-07-22T11:07:30;22.20;52.30
73121;DHT22;61307;49.628;-1.624;2023-07-22T11:09:58;22.20;52.30
73121;DHT22;61307;49.628;-1.624;2023-07-22T11:12:38;22.20;52.30
73121;DHT22;61307;49.628;-1.624;2023-07-22T11:15:06;22.20;52.30
73121;DHT22;61307;49.628;-1.624;2023-07-22T11:17:37;22.20;52.30
73121;DHT22;61307;49.628;-1.624;2023-07-22T11:20:05;22.20;52.30
73121;DHT22;61307;49.628;-1.624;2023-07-22T11:22:32;22.20;52.30
73121;DHT22;61307;49.628;-1.624;2023-07-22T11:25:03;22.20;52.20
73121;DHT22;61307;49.628;-1.624;2023-07-22T11:27:31;22.20;53.00
73121;DHT22;61307;49.628;-1.624;2023-07-22T11:30:00;22.20;52.30
73121;DHT22;61307;49.628;-1.624;2023-07-22T11:32:29;22.20;52.30
73121;DHT22;61307;49.628;-1.624;2023-07-22T11:34:56;22.20;52.30
73121;DHT22;61307;49.628;-1.624;2023-07-22T11:37:23;22.20;52.30
73121;DHT22;61307;49.628;-1.624;2023-07-22T11:39:50;22.20;52.20
73121;DHT22;61307;49.628;-1.624;2023-07-22T11:42:18;22.20;52.20
73121;DHT22;61307;49.628;-1.624;2023-07-22T11:44:45;22.20;52.20
73121;DHT22;61307;49.628;-1.624;2023-07-22T11:47:14;22.20;52.20
73121;DHT22;61307;49.628;-1.624;2023-07-22T11:49:41;22.20;52.20
73121;DHT22;61307;49.628;-1.624;2023-07-22T11:52:10;22.20;52.10
73121;DHT22;61307;49.628;-1.624;2023-07-22T11:54:40;22.20;52.20
73121;DHT22;61307;49.628;-1.624;2023-07-22T11:57:13;22.20;52.10
73121;DHT22;61307;49.628;-1.624;2023-07-22T11:59:43;22.20;52.10
73121;DHT22;61307;49.628;-1.624;2023-07-22T12:02:14;22.20;52.10
73121;DHT22;61307;49.628;-1.624;2023-07-22T12:04:42;22.20;52.10
73121;DHT22;61307;49.628;-1.624;2023-07-22T12:07:22;22.10;52.00
73121;DHT22;61307;49.628;-1.624;2023-07-22T12:09:51;22.20;52.10
73121;DHT22;61307;49.628;-1.624;2023-07-22T12:12:18;22.20;52.10
73121;DHT22;61307;49.628;-1.624;2023-07-22T12:14:45;22.20;52.10
73121;DHT22;61307;49.628;-1.624;2023-07-22T12:17:14;22.20;52.10
73121;DHT22;61307;49.628;-1.624;2023-07-22T12:19:51;22.20;52.10
73121;DHT22;61307;49.628;-1.624;2023-07-22T12:22:18;22.20;52.10
73121;DHT22;61307;49.628;-1.624;2023-07-22T12:24:47;22.20;52.10
73121;DHT22;61307;49.628;-1.624;2023-07-22T12:27:14;22.20;52.10
73121;DHT22;61307;49.628;-1.624;2023-07-22T12:29:41;22.20;52.10
73121;DHT22;61307;49.628;-1.624;2023-07-22T12:32:09;22.20;52.10
73121;DHT22;61307;49.628;-1.624;2023-07-22T12:34:37;22.20;52.10
73121;DHT22;61307;49.628;-1.624;2023-07-22T12:37:05;22.20;52.10
73121;DHT22;61307;49.628;-1.624;2023-07-22T12:39:32;22.20;52.10
73121;DHT22;61307;49.628;-1.624;2023-07-22T12:41:59;22.20;52.10
73121;DHT22;61307;49.628;-1.624;2023-07-22T12:44:27;22.20;52.10
73121;DHT22;61307;49.628;-1.624;2023-07-22T12:46:54;22.20;52.10
73121;DHT22;61307;49.628;-1.624;2023-07-22T12:49:21;22.20;52.10
73121;DHT22;61307;49.628;-1.624;2023-07-22T12:51:50;22.20;52.10
73121;DHT22;61307;49.628;-1.624;2023-07-22T12:54:17;22.20;52.10
73121;DHT22;61307;49.628;-1.624;2023-07-22T12:56:44;22.20;52.10
73121;DHT22;61307;49.628;-1.624;2023-07-22T12:59:11;22.20;52.10
73121;DHT22;61307;49.628;-1.624;2023-07-22T13:01:38;22.20;52.10
73121;DHT22;61307;49.628;-1.624;2023-07-22T13:04:14;22.20;52.10
73121;DHT22;61307;49.628;-1.624;2023-07-22T13:06:41;22.20;52.10
73121;DHT22;61307;49.628;-1.624;2023-07-22T13:09:10;22.20;52.00
73121;DHT22;61307;49.628;-1.624;2023-07-22T13:11:37;22.20;52.00
73121;DHT22;61307;49.628;-1.624;2023-07-22T13:14:04;22.20;52.00
73121;DHT22;61307;49.628;-1.624;2023-07-22T13:16:31;22.20;52.00
73121;DHT22;61307;49.628;-1.624;2023-07-22T13:18:58;22.20;52.00
73121;DHT22;61307;49.628;-1.624;2023-07-22T13:21:26;22.20;52.10
73121;DHT22;61307;49.628;-1.624;2023-07-22T13:23:53;22.20;52.10
73121;DHT22;61307;49.628;-1.624;2023-07-22T13:26:22;22.20;52.00
73121;DHT22;61307;49.628;-1.624;2023-07-22T13:28:49;22.20;52.10
73121;DHT22;61307;49.628;-1.624;2023-07-22T13:31:16;22.30;52.10
73121;DHT22;61307;49.628;-1.624;2023-07-22T13:33:43;22.20;52.70
73121;DHT22;61307;49.628;-1.624;2023-07-22T13:36:10;22.30;52.20
73121;DHT22;61307;49.628;-1.624;2023-07-22T13:38:37;22.20;52.00
73121;DHT22;61307;49.628;-1.624;2023-07-22T13:41:04;22.20;52.10
73121;DHT22;61307;49.628;-1.624;2023-07-22T13:43:32;22.30;52.20
73121;DHT22;61307;49.628;-1.624;2023-07-22T13:45:59;22.20;52.10
73121;DHT22;61307;49.628;-1.624;2023-07-22T13:48:26;22.30;52.20
73121;DHT22;61307;49.628;-1.624;2023-07-22T13:50:54;22.30;52.20
73121;DHT22;61307;49.628;-1.624;2023-07-22T13:53:20;22.30;52.20
73121;DHT22;61307;49.628;-1.624;2023-07-22T13:55:48;22.30;52.10
73121;DHT22;61307;49.628;-1.624;2023-07-22T13:58:15;22.30;52.10
73121;DHT22;61307;49.628;-1.624;2023-07-22T14:00:43;22.30;52.20
73121;DHT22;61307;49.628;-1.624;2023-07-22T14:03:10;22.30;52.20
73121;DHT22;61307;49.628;-1.624;2023-07-22T14:05:37;22.30;52.20
73121;DHT22;61307;49.628;-1.624;2023-07-22T14:10:50;22.30;52.10
73121;DHT22;61307;49.628;-1.624;2023-07-22T14:13:17;22.30;52.10
73121;DHT22;61307;49.628;-1.624;2023-07-22T14:15:46;22.30;52.10
73121;DHT22;61307;49.628;-1.624;2023-07-22T14:18:13;22.30;52.10
73121;DHT22;61307;49.628;-1.624;2023-07-22T14:20:42;22.30;52.10
73121;DHT22;61307;49.628;-1.624;2023-07-22T14:23:31;22.30;52.10
73121;DHT22;61307;49.628;-1.624;2023-07-22T14:26:12;22.30;52.10
73121;DHT22;61307;49.628;-1.624;2023-07-22T14:28:53;22.30;52.10
73121;DHT22;61307;49.628;-1.624;2023-07-22T14:31:21;22.30;52.20
73121;DHT22;61307;49.628;-1.624;2023-07-22T14:33:49;22.30;52.20
73121;DHT22;61307;49.628;-1.624;2023-07-22T14:36:16;22.30;52.20
73121;DHT22;61307;49.628;-1.624;2023-07-22T14:38:44;22.30;52.20
73121;DHT22;61307;49.628;-1.624;2023-07-22T14:41:11;22.30;52.20
73121;DHT22;61307;49.628;-1.624;2023-07-22T14:43:38;22.30;52.20
73121;DHT22;61307;49.628;-1.624;2023-07-22T14:46:05;22.30;52.10
73121;DHT22;61307;49.628;-1.624;2023-07-22T14:48:34;22.30;52.10
73121;DHT22;61307;49.628;-1.624;2023-07-22T14:51:01;22.30;52.10
73121;DHT22;61307;49.628;-1.624;2023-07-22T14:53:28;22.30;52.10
73121;DHT22;61307;49.628;-1.624;2023-07-22T14:55:55;22.30;52.20
73121;DHT22;61307;49.628;-1.624;2023-07-22T14:58:22;22.30;52.10
73121;DHT22;61307;49.628;-1.624;2023-07-22T15:00:49;22.30;52.10
73121;DHT22;61307;49.628;-1.624;2023-07-22T15:03:16;22.30;52.10
73121;DHT22;61307;49.628;-1.624;2023-07-22T15:05:45;22.40;52.20
73121;DHT22;61307;49.628;-1.624;2023-07-22T15:08:12;22.40;52.10
73121;DHT22;61307;49.628;-1.624;2023-07-22T15:10:38;22.30;52.10
73121;DHT22;61307;49.628;-1.624;2023-07-22T15:13:06;22.30;52.20
73121;DHT22;61307;49.628;-1.624;2023-07-22T15:15:33;22.40;52.20
73121;DHT22;61307;49.628;-1.624;2023-07-22T15:18:00;22.30;52.10
73121;DHT22;61307;49.628;-1.624;2023-07-22T15:20:27;22.30;52.10
73121;DHT22;61307;49.628;-1.624;2023-07-22T15:22:55;22.30;52.20
73121;DHT22;61307;49.628;-1.624;2023-07-22T15:25:22;22.30;52.10
73121;DHT22;61307;49.628;-1.624;2023-07-22T15:27:49;22.30;52.10
73121;DHT22;61307;49.628;-1.624;2023-07-22T15:30:16;22.30;52.10
73121;DHT22;61307;49.628;-1.624;2023-07-22T15:32:43;22.30;52.20
73121;DHT22;61307;49.628;-1.624;2023-07-22T15:35:10;22.30;52.10